createdAt,value
2017-08-03T00:00:03.979Z,99.90
2017-08-03T00:02:32.219Z,99.90
2017-08-03T00:05:00.436Z,99.90
2017-08-03T00:07:28.713Z,99.90
2017-08-03T00:09:56.946Z,99.90
2017-08-03T00:12:25.175Z,99.90
2017-08-03T00:14:54.219Z,99.90
2017-08-03T00:17:22.451Z,99.90
2017-08-03T00:19:51.448Z,99.90
2017-08-03T00:22:19.740Z,99.90
2017-08-03T00:24:47.979Z,99.90
2017-08-03T00:27:16.986Z,99.90
2017-08-03T00:30:10.094Z,99.90
2017-08-03T00:35:38.431Z,99.90
2017-08-03T00:38:07.442Z,99.90
2017-08-03T00:40:35.691Z,99.90
2017-08-03T00:43:11.247Z,99.90
2017-08-03T00:45:40.257Z,99.90
2017-08-03T00:48:08.503Z,99.90
2017-08-03T00:50:36.934Z,99.90
2017-08-03T00:53:05.172Z,99.90
2017-08-03T00:55:34.172Z,99.90
2017-08-03T00:58:11.414Z,99.90
2017-08-03T01:00:39.644Z,99.90
2017-08-03T01:03:07.877Z,99.90
2017-08-03T01:05:36.157Z,99.90
2017-08-03T01:08:04.406Z,99.90
2017-08-03T01:13:33.328Z,99.90
2017-08-03T01:16:01.572Z,99.90
2017-08-03T01:18:29.831Z,99.90
2017-08-03T01:20:58.139Z,99.90
2017-08-03T01:23:26.398Z,99.90
2017-08-03T01:26:11.127Z,99.90
2017-08-03T01:28:40.131Z,99.90
2017-08-03T01:31:08.382Z,99.90
2017-08-03T01:33:37.422Z,99.90
2017-08-03T01:36:11.438Z,99.90
2017-08-03T01:39:10.095Z,99.90
2017-08-03T01:41:38.338Z,99.90
2017-08-03T01:44:12.666Z,99.90
2017-08-03T01:46:46.510Z,99.90
2017-08-03T01:49:14.807Z,99.90
2017-08-03T01:52:09.576Z,99.90
2017-08-03T01:54:37.855Z,99.90
2017-08-03T01:57:12.241Z,99.90
2017-08-03T01:59:40.533Z,99.90
2017-08-03T02:02:09.530Z,99.90
2017-08-03T02:04:38.544Z,99.90
2017-08-03T02:07:13.354Z,99.90
2017-08-03T02:09:42.354Z,99.90
2017-08-03T02:12:10.903Z,99.90
2017-08-03T02:14:39.199Z,99.90
2017-08-03T02:17:07.437Z,99.90
2017-08-03T02:19:35.680Z,99.90
2017-08-03T02:22:10.764Z,99.90
2017-08-03T02:24:39.006Z,99.90
2017-08-03T02:27:07.239Z,99.90
2017-08-03T02:29:35.515Z,99.90
2017-08-03T02:32:04.515Z,99.90
2017-08-03T02:34:32.739Z,99.90
2017-08-03T02:37:13.718Z,99.90
2017-08-03T02:39:41.956Z,99.90
2017-08-03T02:42:10.202Z,99.90
2017-08-03T02:44:38.503Z,99.90
2017-08-03T02:47:06.735Z,99.90
2017-08-03T02:49:34.969Z,99.90
2017-08-03T02:52:03.428Z,99.90
2017-08-03T02:54:31.658Z,99.90
2017-08-03T02:56:59.902Z,99.90
2017-08-03T02:59:28.178Z,99.90
2017-08-03T03:01:56.411Z,99.90
2017-08-03T03:04:25.405Z,99.90
2017-08-03T03:06:53.688Z,99.90
2017-08-03T03:09:21.919Z,99.90
2017-08-03T03:11:50.143Z,99.90
2017-08-03T03:14:18.430Z,99.90
2017-08-03T03:16:46.678Z,99.90
2017-08-03T03:19:14.949Z,99.90
2017-08-03T03:21:43.231Z,99.90
2017-08-03T03:24:11.462Z,99.90
2017-08-03T03:26:39.707Z,99.90
2017-08-03T03:29:08.340Z,99.90
2017-08-03T03:34:37.322Z,99.90
2017-08-03T03:37:05.558Z,99.90
2017-08-03T03:39:33.795Z,99.90
2017-08-03T03:42:02.068Z,99.90
2017-08-03T03:44:30.309Z,99.90
2017-08-03T03:47:11.523Z,99.90
2017-08-03T03:50:09.988Z,99.90
2017-08-03T03:52:38.270Z,99.90
2017-08-03T03:55:06.490Z,99.90
2017-08-03T03:57:34.722Z,99.90
2017-08-03T04:00:10.662Z,99.90
2017-08-03T04:02:38.882Z,99.90
2017-08-03T04:05:07.887Z,99.90
2017-08-03T04:07:36.187Z,99.90
2017-08-03T04:10:04.406Z,99.90
2017-08-03T04:12:32.641Z,99.90
2017-08-03T04:15:11.366Z,99.90
2017-08-03T04:18:10.067Z,99.90
2017-08-03T04:20:39.242Z,99.90
2017-08-03T04:23:07.484Z,99.90
2017-08-03T04:25:36.519Z,99.90
2017-08-03T04:28:11.078Z,99.90
2017-08-03T04:30:39.307Z,99.90
2017-08-03T04:33:07.540Z,99.90
2017-08-03T04:35:35.803Z,99.90
2017-08-03T04:38:04.043Z,99.90
2017-08-03T04:40:32.270Z,99.90
2017-08-03T04:43:01.299Z,99.90
2017-08-03T04:45:29.530Z,99.90
2017-08-03T04:47:57.898Z,99.90
2017-08-03T04:50:26.971Z,99.90
2017-08-03T04:52:55.211Z,99.90
2017-08-03T04:58:24.197Z,99.90
2017-08-03T05:00:53.184Z,99.90
2017-08-03T05:03:21.430Z,99.90
2017-08-03T05:05:49.709Z,99.90
2017-08-03T05:08:17.950Z,99.90
2017-08-03T05:11:11.957Z,99.90
2017-08-03T05:13:40.190Z,99.90
2017-08-03T05:16:08.423Z,99.90
2017-08-03T05:18:36.689Z,99.90
2017-08-03T05:21:04.911Z,99.90
2017-08-03T05:29:33.985Z,99.90
2017-08-03T05:32:02.230Z,99.90
2017-08-03T05:34:30.462Z,99.90
2017-08-03T05:36:58.731Z,99.90
2017-08-03T05:39:26.982Z,99.90
2017-08-03T05:41:55.233Z,99.90
2017-08-03T05:44:23.534Z,99.90
2017-08-03T05:46:51.780Z,99.90
2017-08-03T05:49:20.178Z,99.90
2017-08-03T05:52:10.287Z,99.90
2017-08-03T05:54:38.525Z,99.90
2017-08-03T05:57:06.759Z,99.90
2017-08-03T05:59:35.056Z,99.90
2017-08-03T06:02:03.312Z,99.90
2017-08-03T06:04:32.316Z,99.90
2017-08-03T06:07:11.994Z,99.90
2017-08-03T06:09:40.216Z,99.90
2017-08-03T06:12:08.455Z,99.90
2017-08-03T06:14:36.736Z,99.90
2017-08-03T06:17:04.960Z,99.90
2017-08-03T06:19:33.978Z,99.90
2017-08-03T06:22:12.222Z,99.90
2017-08-03T06:24:40.466Z,99.90
2017-08-03T06:40:17.974Z,99.90
2017-08-03T06:42:46.242Z,99.90
2017-08-03T06:45:14.571Z,99.90
2017-08-03T06:48:09.556Z,99.90
2017-08-03T06:50:37.860Z,99.90
2017-08-03T06:53:06.102Z,99.90
2017-08-03T06:55:34.373Z,99.90
2017-08-03T06:58:02.625Z,99.90
2017-08-03T07:00:30.879Z,99.90
2017-08-03T07:03:12.514Z,99.90
2017-08-03T07:05:40.768Z,99.90
2017-08-03T07:11:11.195Z,99.90
2017-08-03T07:13:39.422Z,99.90
2017-08-03T07:22:14.259Z,99.90
2017-08-03T07:24:42.533Z,99.90
2017-08-03T07:27:10.805Z,99.90
2017-08-03T07:29:39.099Z,99.90
2017-08-03T07:32:07.342Z,99.90
2017-08-03T07:34:35.582Z,99.90
2017-08-03T07:37:03.858Z,99.90
2017-08-03T07:39:32.088Z,99.90
2017-08-03T07:42:00.329Z,99.90
2017-08-03T07:44:28.615Z,99.90
2017-08-03T07:46:56.865Z,99.90
2017-08-03T07:49:25.181Z,99.90
2017-08-03T07:51:53.659Z,99.90
2017-08-03T07:54:21.898Z,99.90
2017-08-03T07:56:50.154Z,99.90
2017-08-03T07:59:19.390Z,99.90
2017-08-03T08:01:47.638Z,99.90
2017-08-03T08:04:15.887Z,99.90
2017-08-03T08:06:44.169Z,99.90
2017-08-03T08:09:13.181Z,99.90
2017-08-03T08:12:11.284Z,99.90
2017-08-03T08:15:10.227Z,99.90
2017-08-03T08:17:38.567Z,99.90
2017-08-03T08:20:06.807Z,97.80
2017-08-03T08:22:35.061Z,98.80
2017-08-03T08:25:04.112Z,96.70
2017-08-03T08:30:32.919Z,98.10
2017-08-03T08:33:01.154Z,98.10
2017-08-03T08:35:29.400Z,97.20
2017-08-03T08:37:57.658Z,96.80
2017-08-03T08:40:25.916Z,96.50
2017-08-03T08:42:54.166Z,96.30
2017-08-03T08:45:23.026Z,96.20
2017-08-03T08:47:51.272Z,95.50
2017-08-03T08:50:19.489Z,94.10
2017-08-03T08:52:48.566Z,93.40
2017-08-03T08:55:16.848Z,93.10
2017-08-03T08:57:45.873Z,92.10
2017-08-03T09:11:51.071Z,92.10
2017-08-03T09:14:20.220Z,89.50
2017-08-03T09:16:48.460Z,90.10
2017-08-03T09:19:16.744Z,88.20
2017-08-03T09:22:10.984Z,88.30
2017-08-03T09:24:39.259Z,89.10
2017-08-03T09:27:08.248Z,88.00
2017-08-03T09:29:37.251Z,87.00
2017-08-03T09:32:05.551Z,86.00
2017-08-03T09:34:33.790Z,83.10
2017-08-03T09:37:12.672Z,82.10
2017-08-03T09:40:11.208Z,85.80
2017-08-03T09:42:39.503Z,80.30
2017-08-03T09:45:07.756Z,81.80
2017-08-03T09:47:36.747Z,76.30
2017-08-03T09:50:05.804Z,76.70
2017-08-03T09:52:34.065Z,76.60
2017-08-03T09:55:02.546Z,76.50
2017-08-03T09:57:30.841Z,76.80
2017-08-03T09:59:59.065Z,76.80
2017-08-03T10:02:28.059Z,74.20
2017-08-03T10:04:56.313Z,74.20
2017-08-03T10:07:24.542Z,74.20
2017-08-03T10:09:52.781Z,77.60
2017-08-03T10:12:21.090Z,74.10
2017-08-03T10:14:49.355Z,72.60
2017-08-03T10:17:17.578Z,71.60
2017-08-03T10:19:45.854Z,71.30
2017-08-03T10:22:14.100Z,72.30
2017-08-03T10:24:42.328Z,67.00
2017-08-03T10:27:11.382Z,66.80
2017-08-03T10:29:39.628Z,66.80
2017-08-03T10:32:07.850Z,66.90
2017-08-03T10:34:36.103Z,69.80
2017-08-03T10:37:04.324Z,71.10
2017-08-03T10:39:32.584Z,70.50
2017-08-03T10:42:01.643Z,70.10
2017-08-03T10:44:29.873Z,70.10
2017-08-03T10:47:10.780Z,69.90
2017-08-03T10:49:39.701Z,66.20
2017-08-03T10:52:07.938Z,69.30
2017-08-03T10:54:36.189Z,66.90
2017-08-03T10:57:04.416Z,69.90
2017-08-03T10:59:32.674Z,68.40
2017-08-03T11:02:11.424Z,68.30
2017-08-03T11:04:39.673Z,66.10
2017-08-03T11:18:58.419Z,64.30
2017-08-03T11:21:27.690Z,65.70
2017-08-03T11:24:03.090Z,65.00
2017-08-03T11:26:31.364Z,65.10
2017-08-03T11:29:13.420Z,65.40
2017-08-03T11:31:41.707Z,65.40
2017-08-03T11:34:11.675Z,64.60
2017-08-03T11:36:40.199Z,64.50
2017-08-03T11:39:08.486Z,64.70
2017-08-03T11:41:36.732Z,62.50
2017-08-03T11:44:05.012Z,63.30
2017-08-03T11:46:33.251Z,63.90
2017-08-03T11:49:01.481Z,65.30
2017-08-03T11:51:29.789Z,63.70
2017-08-03T11:53:58.783Z,66.80
2017-08-03T11:59:27.964Z,64.00
2017-08-03T12:01:56.208Z,64.10
2017-08-03T12:04:25.000Z,65.30
2017-08-03T12:19:57.777Z,66.40
2017-08-03T12:22:26.689Z,63.40
2017-08-03T12:25:12.519Z,64.30
2017-08-03T12:27:40.761Z,64.90
2017-08-03T12:30:09.435Z,66.00
2017-08-03T12:32:37.748Z,66.70
2017-08-03T12:35:06.010Z,66.10
2017-08-03T12:37:34.276Z,66.10
2017-08-03T12:40:12.146Z,66.40
2017-08-03T12:42:40.394Z,66.60
2017-08-03T12:45:08.678Z,67.50
2017-08-03T12:47:36.957Z,68.30
2017-08-03T12:50:05.220Z,67.60
2017-08-03T12:55:34.970Z,68.30
2017-08-03T12:58:03.190Z,68.00
2017-08-03T13:00:31.419Z,68.60
2017-08-03T13:02:59.729Z,70.60
2017-08-03T13:08:28.701Z,70.10
2017-08-03T13:10:56.960Z,70.40
2017-08-03T13:13:25.216Z,71.20
2017-08-03T13:15:53.520Z,70.60
2017-08-03T13:18:21.763Z,68.40
2017-08-03T13:20:50.775Z,69.20
2017-08-03T13:23:19.204Z,69.20
2017-08-03T13:25:48.544Z,68.90
2017-08-03T13:28:17.253Z,68.40
2017-08-03T13:30:45.566Z,70.20
2017-08-03T13:33:14.735Z,69.40
2017-08-03T13:36:10.328Z,74.60
2017-08-03T13:38:39.220Z,70.70
2017-08-03T13:41:07.443Z,72.10
2017-08-03T13:43:35.734Z,71.80
2017-08-03T13:46:03.965Z,73.10
2017-08-03T13:48:32.215Z,74.00
2017-08-03T13:51:00.516Z,73.10
2017-08-03T13:53:28.765Z,74.90
2017-08-03T13:55:56.990Z,75.00
2017-08-03T13:58:25.275Z,77.00
2017-08-03T14:00:53.559Z,80.80
2017-08-03T14:03:21.812Z,85.50
2017-08-03T14:05:50.095Z,84.90
2017-08-03T14:08:18.324Z,84.20
2017-08-03T14:10:46.547Z,82.80
2017-08-03T14:15:48.847Z,81.90
2017-08-03T14:18:17.115Z,81.40
2017-08-03T14:20:45.366Z,81.90
2017-08-03T14:23:13.579Z,84.50
2017-08-03T14:25:41.839Z,81.00
2017-08-03T14:28:10.083Z,81.50
2017-08-03T14:33:38.399Z,83.10
2017-08-03T14:36:06.639Z,82.10
2017-08-03T14:38:34.874Z,82.10
2017-08-03T14:41:03.182Z,81.80
2017-08-03T14:43:33.044Z,80.60
2017-08-03T14:46:11.743Z,82.00
2017-08-03T14:48:39.962Z,81.90
2017-08-03T14:51:08.205Z,80.80
2017-08-03T14:53:37.768Z,81.40
2017-08-03T14:56:06.018Z,82.60
2017-08-03T14:58:35.125Z,81.70
2017-08-03T15:01:33.950Z,81.00
2017-08-03T15:04:02.174Z,81.90
2017-08-03T15:06:30.389Z,82.30
2017-08-03T15:08:58.656Z,81.30
2017-08-03T15:11:26.891Z,81.50
2017-08-03T15:14:12.479Z,82.90
2017-08-03T15:16:40.744Z,83.50
2017-08-03T15:19:11.941Z,85.10
2017-08-03T15:21:40.436Z,83.70
2017-08-03T15:24:08.924Z,83.60
2017-08-03T15:29:37.926Z,84.90
2017-08-03T15:32:06.159Z,84.70
2017-08-03T15:34:35.166Z,85.80
2017-08-03T15:37:03.462Z,85.70
2017-08-03T15:39:31.687Z,85.00
2017-08-03T15:42:13.248Z,85.60
2017-08-03T15:44:41.494Z,85.80
2017-08-03T15:47:09.719Z,87.30
2017-08-03T15:49:37.992Z,86.70
2017-08-03T15:52:06.213Z,85.50
2017-08-03T15:57:34.610Z,86.30
2017-08-03T16:00:02.848Z,86.70
2017-08-03T16:11:17.287Z,85.10
2017-08-03T16:13:45.512Z,81.70
2017-08-03T16:16:13.741Z,80.40
2017-08-03T16:18:42.016Z,80.90
2017-08-03T16:21:10.229Z,81.30
2017-08-03T16:23:38.460Z,83.80
2017-08-03T16:26:07.498Z,86.60
2017-08-03T16:28:35.741Z,85.60
2017-08-03T16:31:13.902Z,85.30
2017-08-03T16:33:42.148Z,82.70
2017-08-03T16:36:12.103Z,82.20
2017-08-03T16:39:10.543Z,80.60
2017-08-03T16:41:38.770Z,80.80
2017-08-03T16:44:07.753Z,81.40
2017-08-03T16:46:36.041Z,81.20
2017-08-03T16:49:05.031Z,82.10
2017-08-03T16:51:34.026Z,79.70
2017-08-03T16:54:03.062Z,77.70
2017-08-03T16:56:31.290Z,77.40
2017-08-03T16:59:00.325Z,77.90
2017-08-03T17:01:28.616Z,77.90
2017-08-03T17:03:56.871Z,78.20
2017-08-03T17:09:25.145Z,78.20
2017-08-03T17:11:53.385Z,76.90
2017-08-03T17:14:21.638Z,76.70
2017-08-03T17:16:49.913Z,76.70
2017-08-03T17:19:18.172Z,75.80
2017-08-03T17:21:46.393Z,75.90
2017-08-03T17:24:15.433Z,74.50
2017-08-03T17:26:43.655Z,74.40
2017-08-03T17:29:11.891Z,74.10
2017-08-03T17:31:40.232Z,72.90
2017-08-03T17:34:08.489Z,72.60
2017-08-03T17:36:37.569Z,74.30
2017-08-03T17:39:05.841Z,73.30
2017-08-03T17:41:34.109Z,72.80
2017-08-03T17:44:03.098Z,71.90
2017-08-03T17:46:31.375Z,73.40
2017-08-03T17:49:11.979Z,71.80
2017-08-03T17:51:41.040Z,71.00
2017-08-03T17:54:09.257Z,71.00
2017-08-03T17:56:37.498Z,69.30
2017-08-03T17:59:05.778Z,72.00
2017-08-03T18:04:34.771Z,71.90
2017-08-03T18:07:03.525Z,72.10
2017-08-03T18:09:31.761Z,71.60
2017-08-03T18:12:00.033Z,71.70
2017-08-03T18:17:29.039Z,72.20
2017-08-03T18:19:57.272Z,72.30
2017-08-03T18:22:25.521Z,72.20
2017-08-03T18:24:53.837Z,72.60
2017-08-03T18:27:22.088Z,72.90
2017-08-03T18:29:50.393Z,72.00
2017-08-03T18:32:18.665Z,72.80
2017-08-03T18:34:46.898Z,72.50
2017-08-03T18:37:15.130Z,72.50
2017-08-03T18:39:43.417Z,72.40
2017-08-03T18:42:11.650Z,72.00
2017-08-03T18:44:39.911Z,73.70
2017-08-03T18:47:11.511Z,73.30
2017-08-03T18:53:10.760Z,73.30
2017-08-03T18:55:39.774Z,71.60
2017-08-03T18:58:11.496Z,71.50
2017-08-03T19:00:39.709Z,73.10
2017-08-03T19:03:14.721Z,74.00
2017-08-03T19:05:43.804Z,72.90
2017-08-03T19:08:12.819Z,73.10
2017-08-03T19:11:10.882Z,73.10
2017-08-03T19:16:40.010Z,72.50
2017-08-03T19:19:08.259Z,73.10
2017-08-03T19:21:37.301Z,74.90
2017-08-03T19:24:05.633Z,73.80
2017-08-03T19:26:33.908Z,75.40
2017-08-03T19:29:02.925Z,75.00
2017-08-03T19:31:31.245Z,74.90
2017-08-03T19:33:59.503Z,75.00
2017-08-03T19:36:27.733Z,74.80
2017-08-03T19:39:11.505Z,76.20
2017-08-03T19:44:40.951Z,75.50
2017-08-03T19:47:09.203Z,75.50
2017-08-03T19:49:37.484Z,76.40
2017-08-03T19:52:12.409Z,76.30
2017-08-03T19:54:40.667Z,76.50
2017-08-03T19:57:08.915Z,76.10
2017-08-03T19:59:37.199Z,76.40
2017-08-03T20:02:05.444Z,79.30
2017-08-03T20:04:33.693Z,77.10
2017-08-03T20:07:12.004Z,78.30
2017-08-03T20:10:10.701Z,79.40
2017-08-03T20:12:38.995Z,80.00
2017-08-03T20:15:07.606Z,78.80
2017-08-03T20:17:35.836Z,79.70
2017-08-03T20:20:11.579Z,79.70
2017-08-03T20:23:10.194Z,80.30
2017-08-03T20:25:38.500Z,79.70
2017-08-03T20:28:07.506Z,80.90
2017-08-03T20:30:35.755Z,80.80
2017-08-03T20:33:11.386Z,81.30
2017-08-03T20:35:39.637Z,83.00
2017-08-03T20:38:11.640Z,82.00
2017-08-03T20:40:39.891Z,81.90
2017-08-03T20:43:08.128Z,82.60
2017-08-03T20:45:37.212Z,83.40
2017-08-03T20:48:05.468Z,83.90
2017-08-03T20:50:33.678Z,83.60
2017-08-03T20:53:02.036Z,84.90
2017-08-03T20:55:31.024Z,84.10
2017-08-03T20:58:00.024Z,83.50
2017-08-03T21:00:29.068Z,83.40
2017-08-03T21:02:57.371Z,83.30
2017-08-03T21:08:04.136Z,85.20
2017-08-03T21:10:32.391Z,85.20
2017-08-03T21:13:00.622Z,84.40
2017-08-03T21:15:29.671Z,84.60
2017-08-03T21:17:57.918Z,84.60
2017-08-03T21:20:26.129Z,85.10
2017-08-03T21:22:54.394Z,85.90
2017-08-03T21:25:22.614Z,86.20
2017-08-03T21:27:51.618Z,86.30
2017-08-03T21:30:19.889Z,86.20
2017-08-03T21:32:48.918Z,87.60
2017-08-03T21:35:17.141Z,87.50
2017-08-03T21:38:11.215Z,88.20
2017-08-03T21:40:39.458Z,87.60
2017-08-03T21:43:07.715Z,88.10
2017-08-03T21:45:35.986Z,88.60
2017-08-03T21:48:04.273Z,89.20
2017-08-03T21:50:32.516Z,90.00
2017-08-03T21:53:01.611Z,90.20
2017-08-03T21:55:29.849Z,90.10
2017-08-03T21:58:11.652Z,90.50
2017-08-03T22:03:39.811Z,90.80
2017-08-03T22:06:08.028Z,91.40
2017-08-03T22:08:36.250Z,91.40
2017-08-03T22:11:04.516Z,91.60
2017-08-03T22:13:32.745Z,91.90
2017-08-03T22:16:11.387Z,92.30
2017-08-03T22:18:40.397Z,92.60
2017-08-03T22:21:08.622Z,92.60
2017-08-03T22:23:37.184Z,92.60
2017-08-03T22:26:11.560Z,93.10
2017-08-03T22:28:40.582Z,93.70
2017-08-03T22:31:08.798Z,93.60
2017-08-03T22:33:37.012Z,93.90
2017-08-03T22:36:05.276Z,94.10
2017-08-03T22:38:34.283Z,94.50
2017-08-03T22:41:02.518Z,94.50
2017-08-03T22:46:30.842Z,93.90
2017-08-03T22:48:59.076Z,94.30
2017-08-03T22:51:27.295Z,94.80
2017-08-03T22:53:55.572Z,94.30
2017-08-03T22:56:23.800Z,94.50
2017-08-03T22:59:11.485Z,94.10
2017-08-03T23:04:40.052Z,95.10
2017-08-03T23:07:08.289Z,95.50
2017-08-03T23:09:36.527Z,94.80
2017-08-03T23:12:11.452Z,95.40
2017-08-03T23:14:40.461Z,95.60
2017-08-03T23:17:08.699Z,95.50
2017-08-03T23:19:37.012Z,96.90
2017-08-03T23:25:05.684Z,96.60
2017-08-03T23:27:33.902Z,96.70
2017-08-03T23:30:02.123Z,97.80
2017-08-03T23:32:30.391Z,97.00
2017-08-03T23:34:58.623Z,96.90
2017-08-03T23:40:28.165Z,97.00
2017-08-03T23:42:56.385Z,97.00
2017-08-03T23:45:24.598Z,97.60
2017-08-03T23:47:52.869Z,98.10
2017-08-03T23:50:21.110Z,98.50
2017-08-03T23:52:50.126Z,98.70
2017-08-03T23:55:18.406Z,98.70
2017-08-03T23:57:46.613Z,98.60
